Time;durP1;ratioP1;P1;durP2;ratioP2;P2;SDS_P1;SDS_P2;PMS_P1;PMS_P2;Temp;Humidity;BMP_temperature;BMP_pressure;BME280_temperature;BME280_humidity;BME280_pressure;Samples;Min_cycle;Max_cycle;Signal;HPM_P1;HPM_P2
2022/11/09 00:01:01;;;;;;;6.90;2.53;;;12.60;99.90;;;;;;5037404;28;20045;-71
2022/11/09 00:03:27;;;;;;;5.07;2.40;;;12.80;99.90;;;;;;5037108;28;20051;-71
2022/11/09 00:05:57;;;;;;;7.65;2.72;;;12.90;99.90;;;;;;5037267;28;20045;-70
2022/11/09 00:08:23;;;;;;;7.70;2.75;;;13.00;99.90;;;;;;5037058;28;20052;-71
2022/11/09 00:10:49;;;;;;;8.43;2.55;;;13.10;99.90;;;;;;5037099;28;20037;-71
2022/11/09 00:13:15;;;;;;;5.63;2.63;;;13.20;99.90;;;;;;5037081;28;20448;-71
2022/11/09 00:15:40;;;;;;;7.22;2.40;;;13.40;99.90;;;;;;5036862;28;20077;-71
2022/11/09 00:18:06;;;;;;;5.15;2.63;;;13.40;99.90;;;;;;5036952;28;20048;-71
2022/11/09 00:20:32;;;;;;;8.90;3.13;;;13.40;99.90;;;;;;5036779;28;20493;-70
2022/11/09 00:22:57;;;;;;;6.18;2.83;;;13.30;99.90;;;;;;5037003;28;20111;-70
2022/11/09 00:25:23;;;;;;;6.32;2.85;;;13.20;99.90;;;;;;5036677;28;20055;-70
2022/11/09 00:27:49;;;;;;;7.25;3.03;;;13.10;99.90;;;;;;5036846;28;20106;-71
2022/11/09 00:30:15;;;;;;;5.03;2.70;;;13.00;99.90;;;;;;5036758;28;20080;-70
2022/11/09 00:32:40;;;;;;;6.50;2.78;;;13.00;99.90;;;;;;5036256;28;20052;-71
2022/11/09 00:35:06;;;;;;;6.95;2.90;;;13.00;99.90;;;;;;5036605;28;20049;-70
2022/11/09 00:37:32;;;;;;;7.50;3.00;;;12.90;99.90;;;;;;5036274;28;20060;-70
2022/11/09 00:39:58;;;;;;;4.18;2.95;;;12.90;99.90;;;;;;5036484;28;20170;-70
2022/11/09 00:42:23;;;;;;;7.32;3.33;;;12.90;99.90;;;;;;5036351;28;20130;-70
2022/11/09 00:44:49;;;;;;;7.72;2.88;;;12.80;99.90;;;;;;5036493;28;20040;-70
2022/11/09 00:47:15;;;;;;;4.85;2.80;;;12.80;99.90;;;;;;5003674;28;20056;-70
2022/11/09 00:49:40;;;;;;;7.13;2.97;;;12.80;99.90;;;;;;5036243;28;20049;-70
2022/11/09 00:52:06;;;;;;;6.32;2.88;;;12.70;99.90;;;;;;5036119;28;20473;-70
2022/11/09 00:54:32;;;;;;;8.82;2.80;;;12.60;99.90;;;;;;5002844;28;20044;-71
2022/11/09 00:56:57;;;;;;;5.45;3.30;;;12.50;99.90;;;;;;5019870;28;20095;-71
2022/11/09 00:59:23;;;;;;;6.07;2.97;;;12.50;99.90;;;;;;5036086;28;20041;-73
2022/11/09 01:01:49;;;;;;;5.05;2.90;;;12.50;99.90;;;;;;5019760;28;20049;-71
2022/11/09 01:04:15;;;;;;;7.13;3.20;;;12.40;99.90;;;;;;5019710;28;20041;-71
2022/11/09 01:06:40;;;;;;;6.22;3.03;;;12.40;99.90;;;;;;5035826;28;20056;-71
2022/11/09 01:09:06;;;;;;;6.30;3.10;;;12.40;99.90;;;;;;5036146;28;20045;-70
2022/11/09 01:11:31;;;;;;;7.78;3.20;;;12.30;99.90;;;;;;5035524;28;20132;-71
2022/11/09 01:13:59;;;;;;;4.97;2.60;;;12.20;99.90;;;;;;5019639;28;20045;-70
2022/11/09 01:16:31;;;;;;;6.18;3.10;;;12.30;99.90;;;;;;5035943;28;20056;-71
2022/11/09 01:18:57;;;;;;;10.90;3.10;;;12.30;99.90;;;;;;5035863;28;20516;-70
2022/11/09 01:21:24;;;;;;;5.63;3.33;;;12.30;99.90;;;;;;5019365;28;20592;-71
2022/11/09 01:23:49;;;;;;;10.95;3.40;;;12.40;99.90;;;;;;5035588;28;20045;-71
2022/11/09 01:26:15;;;;;;;9.55;2.95;;;12.40;99.90;;;;;;5035810;28;20388;-71
2022/11/09 01:28:41;;;;;;;6.35;3.05;;;12.50;99.90;;;;;;5035463;28;20037;-71
2022/11/09 01:31:12;;;;;;;5.05;3.05;;;12.50;99.90;;;;;;5035621;28;20041;-71
2022/11/09 01:33:38;;;;;;;7.50;3.33;;;12.50;99.90;;;;;;5019106;28;20055;-70
2022/11/09 01:36:16;;;;;;;5.88;2.80;;;12.50;99.90;;;;;;5019331;28;20048;-71
2022/11/09 01:38:42;;;;;;;5.35;2.92;;;12.50;99.90;;;;;;5035144;28;20386;-71
2022/11/09 01:41:17;;;;;;;5.63;2.65;;;12.50;99.90;;;;;;5035099;28;20064;-71
2022/11/09 01:43:43;;;;;;;6.72;3.20;;;12.60;99.90;;;;;;5018926;28;20055;-71
2022/11/09 01:46:26;;;;;;;7.82;3.28;;;12.50;99.90;;;;;;5019165;28;20049;-71
2022/11/09 01:49:00;;;;;;;8.32;2.80;;;12.50;99.90;;;;;;5035338;28;20051;-71
2022/11/09 01:51:35;;;;;;;6.15;3.38;;;12.40;99.90;;;;;;5019011;28;20500;-70
2022/11/09 01:54:26;;;;;;;6.40;2.95;;;12.40;99.90;;;;;;5035490;28;20041;-71
2022/11/09 01:56:56;;;;;;;6.70;2.85;;;12.40;99.90;;;;;;5008976;28;20067;-71
2022/11/09 01:59:27;;;;;;;8.07;2.70;;;12.40;99.90;;;;;;5035454;28;20132;-71
2022/11/09 02:01:53;;;;;;;;;;;12.30;99.90;;;;;;5052151;28;20060;-71
2022/11/09 02:04:23;;;;;;;9.68;3.15;;;12.50;99.90;;;;;;5051934;28;19921;-70
2022/11/09 02:06:50;;;;;;;7.95;2.70;;;12.40;99.90;;;;;;5035129;28;20088;-70
2022/11/09 02:09:30;;;;;;;5.68;2.67;;;12.50;99.90;;;;;;5018841;28;20127;-71
2022/11/09 02:11:56;;;;;;;6.15;3.05;;;12.50;99.90;;;;;;5034931;28;20052;-70
2022/11/09 02:14:25;;;;;;;6.55;2.80;;;12.50;99.90;;;;;;5034913;28;20485;-70
2022/11/09 02:16:51;;;;;;;3.47;2.58;;;12.40;99.90;;;;;;5034928;28;20056;-71
2022/11/09 02:19:16;;;;;;;9.30;2.97;;;12.40;99.90;;;;;;5035075;28;20057;-70
2022/11/09 02:21:42;;;;;;;7.32;3.08;;;12.40;99.90;;;;;;5034680;28;20084;-71
2022/11/09 02:24:08;;;;;;;8.45;3.17;;;12.30;99.90;;;;;;4986157;28;20041;-71
2022/11/09 02:26:47;;;;;;;9.25;2.78;;;12.30;99.90;;;;;;5018683;28;20086;-70
2022/11/09 02:29:18;;;;;;;6.85;2.85;;;12.30;99.90;;;;;;5018310;28;20045;-71
2022/11/09 02:31:50;;;;;;;6.53;2.75;;;12.20;99.90;;;;;;5018384;28;20474;-71
2022/11/09 02:34:20;;;;;;;9.65;2.97;;;12.30;99.90;;;;;;5035115;28;20072;-71
2022/11/09 02:36:46;;;;;;;7.30;2.88;;;12.20;99.90;;;;;;5034622;28;20389;-70
2022/11/09 02:39:15;;;;;;;5.20;2.90;;;12.20;99.90;;;;;;5034492;28;20053;-70
2022/11/09 02:42:01;;;;;;;4.93;2.75;;;12.20;99.90;;;;;;5034704;28;20053;-71
2022/11/09 02:44:28;;;;;;;7.47;3.40;;;12.20;99.90;;;;;;5018538;28;20048;-70
2022/11/09 02:46:54;;;;;;;7.47;2.97;;;12.30;99.90;;;;;;5034527;28;20045;-71
2022/11/09 02:49:20;;;;;;;6.90;2.50;;;12.30;99.90;;;;;;5018363;28;20543;-71
2022/11/09 02:51:45;;;;;;;4.40;2.40;;;12.30;99.90;;;;;;5017734;28;20441;-70
2022/11/09 02:54:11;;;;;;;7.47;3.00;;;12.30;99.90;;;;;;5021545;28;20045;-71
2022/11/09 02:56:37;;;;;;;7.45;2.88;;;12.30;99.90;;;;;;5005676;28;20135;-70
2022/11/09 02:59:03;;;;;;;7.47;2.75;;;12.30;99.90;;;;;;5005555;28;20111;-70
2022/11/09 03:01:29;;;;;;;11.27;2.90;;;12.30;99.90;;;;;;5038493;28;20087;-70
2022/11/09 03:03:55;;;;;;;8.25;2.83;;;12.30;99.90;;;;;;5038267;28;20041;-70
2022/11/09 03:06:33;;;;;;;6.45;2.28;;;12.20;99.90;;;;;;5021551;28;20063;-71
2022/11/09 03:09:00;;;;;;;5.35;2.80;;;12.30;99.90;;;;;;5038080;28;20131;-70
2022/11/09 03:11:26;;;;;;;8.10;2.67;;;12.30;99.90;;;;;;5038195;28;20045;-70
2022/11/09 03:13:51;;;;;;;4.20;2.45;;;12.30;99.90;;;;;;5038030;28;20048;-72
2022/11/09 03:16:17;;;;;;;8.13;2.58;;;12.20;99.90;;;;;;5021720;28;20532;-70
2022/11/09 03:18:43;;;;;;;7.18;2.60;;;12.20;99.90;;;;;;5022257;28;20389;-70
2022/11/09 03:21:08;;;;;;;7.32;2.50;;;12.20;99.90;;;;;;5021504;28;20071;-70
2022/11/09 03:23:34;;;;;;;10.18;2.83;;;12.20;99.90;;;;;;5038185;28;20068;-70
2022/11/09 03:26:00;;;;;;;7.13;2.47;;;12.20;99.90;;;;;;5037901;28;20044;-70
2022/11/09 03:28:25;;;;;;;6.45;2.65;;;12.20;99.90;;;;;;5021451;28;20460;-71
2022/11/09 03:30:51;;;;;;;9.70;2.75;;;12.10;99.90;;;;;;5021238;28;20056;-71
2022/11/09 03:33:17;;;;;;;11.02;2.33;;;12.10;99.90;;;;;;5037885;28;20104;-71
2022/11/09 03:35:43;;;;;;;9.23;2.72;;;12.10;99.90;;;;;;5037765;28;20636;-71
2022/11/09 03:38:09;;;;;;;10.85;2.50;;;12.10;99.90;;;;;;5037131;28;20065;-71
2022/11/09 03:40:35;;;;;;;7.30;2.20;;;12.10;99.90;;;;;;5021068;28;20160;-71
2022/11/09 03:43:00;;;;;;;8.82;2.63;;;12.10;99.90;;;;;;5004807;28;20051;-70
2022/11/09 03:45:29;;;;;;;8.75;2.40;;;12.20;99.90;;;;;;5037501;28;20051;-71
2022/11/09 03:47:58;;;;;;;6.32;2.15;;;12.20;99.90;;;;;;5021241;28;20041;-71
2022/11/09 03:50:25;;;;;;;9.57;2.60;;;12.30;99.90;;;;;;5037410;28;20131;-71
2022/11/09 03:52:51;;;;;;;12.60;2.35;;;12.30;99.90;;;;;;5020327;28;20060;-71
2022/11/09 03:55:17;;;;;;;10.20;2.35;;;12.30;99.90;;;;;;5020719;28;20492;-71
2022/11/09 03:57:45;;;;;;;4.97;2.13;;;12.30;99.90;;;;;;5037250;28;20041;-71
2022/11/09 04:00:13;;;;;;;9.95;2.35;;;12.30;99.90;;;;;;5020604;28;20540;-71
2022/11/09 04:02:39;;;;;;;14.10;2.65;;;12.20;99.90;;;;;;5037236;28;20057;-71
2022/11/09 04:05:05;;;;;;;10.32;2.45;;;12.20;99.90;;;;;;5036762;28;20052;-70
2022/11/09 04:07:31;;;;;;;6.90;2.00;;;12.20;99.90;;;;;;5037243;28;20132;-71
2022/11/09 04:09:57;;;;;;;8.27;2.05;;;12.20;99.90;;;;;;5037043;28;20135;-71
2022/11/09 04:12:23;;;;;;;8.73;2.17;;;12.20;99.90;;;;;;5036939;28;20482;-71
2022/11/09 04:14:48;;;;;;;10.07;2.00;;;12.20;99.90;;;;;;5020818;28;20048;-71
2022/11/09 04:17:14;;;;;;;8.85;2.72;;;12.10;99.90;;;;;;5020510;28;20052;-70
2022/11/09 04:19:40;;;;;;;11.00;2.65;;;12.20;99.90;;;;;;5037036;28;20462;-70
2022/11/09 04:22:06;;;;;;;9.05;2.40;;;12.10;99.90;;;;;;5020309;28;20037;-71
2022/11/09 04:24:31;;;;;;;7.40;1.90;;;12.10;99.90;;;;;;5020504;28;20110;-71
2022/11/09 04:26:57;;;;;;;7.45;2.25;;;12.10;99.90;;;;;;5004031;28;20087;-71
2022/11/09 04:29:23;;;;;;;11.10;2.17;;;12.10;99.90;;;;;;5036906;28;20049;-71
2022/11/09 04:31:49;;;;;;;12.25;2.17;;;12.00;99.90;;;;;;5020131;28;20453;-70
2022/11/09 04:34:15;;;;;;;8.27;1.88;;;12.00;99.90;;;;;;5036295;28;20139;-71
2022/11/09 04:36:49;;;;;;;6.74;2.11;;;12.00;99.90;;;;;;4961435;28;10000589;-71
2022/11/09 04:39:15;;;;;;;8.23;2.17;;;12.00;99.90;;;;;;5001195;28;20630;-71
2022/11/09 04:41:41;;;;;;;10.27;2.28;;;12.00;99.90;;;;;;5034020;28;20053;-71
2022/11/09 04:44:06;;;;;;;9.15;2.42;;;12.00;99.90;;;;;;5033967;28;20053;-71
2022/11/09 04:46:32;;;;;;;7.43;1.98;;;12.00;99.90;;;;;;5034147;28;20046;-71
2022/11/09 04:48:58;;;;;;;5.38;2.00;;;12.00;99.90;;;;;;5033593;28;20440;-70
2022/11/09 04:51:23;;;;;;;6.35;2.38;;;11.90;99.90;;;;;;5034045;28;20474;-71
2022/11/09 04:53:49;;;;;;;7.78;2.20;;;11.90;99.90;;;;;;5017306;28;20470;-71
2022/11/09 04:56:15;;;;;;;7.50;2.10;;;11.90;99.90;;;;;;5033770;28;20041;-71
2022/11/09 04:58:41;;;;;;;5.95;2.25;;;11.90;99.90;;;;;;5017433;28;20138;-71
2022/11/09 05:01:11;;;;;;;10.60;2.53;;;11.90;99.90;;;;;;5004528;28;20085;-71
2022/11/09 05:03:38;;;;;;;6.47;2.53;;;12.10;99.90;;;;;;5053833;28;20139;-71
2022/11/09 05:06:30;;;;;;;7.03;2.25;;;12.00;99.90;;;;;;5053523;28;20055;-71
2022/11/09 05:08:50;;;;;;;6.63;2.35;;;11.90;99.90;;;;;;5051331;28;20082;-71
2022/11/09 05:11:16;;;;;;;9.77;2.63;;;12.00;99.90;;;;;;5001147;28;20052;-70
2022/11/09 05:13:42;;;;;;;7.50;2.50;;;12.20;99.90;;;;;;5030067;28;20053;-70
2022/11/09 05:16:07;;;;;;;6.90;2.80;;;12.20;99.90;;;;;;4996528;28;20049;-71
2022/11/09 05:18:33;;;;;;;7.60;2.20;;;12.20;99.90;;;;;;5030374;28;20071;-71
2022/11/09 05:20:59;;;;;;;9.35;2.50;;;12.30;99.90;;;;;;5013807;28;20091;-71
2022/11/09 05:26:10;;;;;;;6.10;2.50;;;12.30;99.90;;;;;;5013169;28;20049;-71
2022/11/09 05:28:35;;;;;;;5.60;2.17;;;12.30;99.90;;;;;;4996515;28;20145;-71
2022/11/09 05:31:01;;;;;;;9.05;2.50;;;12.30;99.90;;;;;;4999569;28;20103;-71
2022/11/09 05:33:27;;;;;;;6.47;2.25;;;12.30;99.90;;;;;;5032174;28;20048;-70
2022/11/09 05:35:56;;;;;;;8.77;2.20;;;12.30;99.90;;;;;;5032364;28;20045;-70
2022/11/09 05:38:23;;;;;;;5.47;2.03;;;12.30;99.90;;;;;;5015767;28;20126;-70
2022/11/09 05:40:50;;;;;;;4.25;2.15;;;12.20;99.90;;;;;;5032409;28;20105;-71
2022/11/09 05:43:16;;;;;;;10.23;2.35;;;12.30;99.90;;;;;;5032070;28;20053;-71
2022/11/09 05:45:42;;;;;;;9.73;2.50;;;12.30;99.90;;;;;;5032187;28;20041;-71
2022/11/09 05:48:08;;;;;;;9.55;2.40;;;12.30;99.90;;;;;;5037869;28;20102;-71
2022/11/09 05:50:34;;;;;;;7.15;2.30;;;12.30;99.90;;;;;;5035451;28;20049;-71
2022/11/09 05:53:01;;;;;;;5.78;2.10;;;12.30;99.90;;;;;;5051776;28;20155;-71
2022/11/09 05:55:28;;;;;;;6.07;2.40;;;12.40;99.90;;;;;;5051829;28;20079;-71
2022/11/09 05:57:54;;;;;;;6.88;1.73;;;12.40;99.90;;;;;;5051987;28;20077;-72
2022/11/09 06:00:20;;;;;;;10.20;2.33;;;12.40;99.90;;;;;;5051734;28;20102;-71
2022/11/09 06:02:46;;;;;;;10.43;2.33;;;12.40;99.90;;;;;;5051966;28;20167;-71
2022/11/09 06:05:12;;;;;;;7.53;2.88;;;12.40;99.90;;;;;;5051668;28;20041;-71
2022/11/09 06:07:37;;;;;;;8.82;2.13;;;12.30;99.90;;;;;;5035259;28;20057;-71
2022/11/09 06:10:04;;;;;;;7.88;2.38;;;12.30;99.90;;;;;;5032707;28;20045;-71
2022/11/09 06:12:29;;;;;;;8.13;2.42;;;12.30;99.90;;;;;;5032538;28;20052;-71
2022/11/09 06:14:55;;;;;;;7.57;2.72;;;12.30;99.90;;;;;;5049389;28;20045;-70
2022/11/09 06:17:21;;;;;;;9.13;2.20;;;12.30;99.90;;;;;;4700829;28;10000550;-71
2022/11/09 06:19:46;;;;;;;6.72;2.20;;;12.30;99.90;;;;;;5032547;28;20049;-70
2022/11/09 06:22:12;;;;;;;6.10;1.77;;;12.30;99.90;;;;;;5065287;28;20145;-71
2022/11/09 06:24:38;;;;;;;3.95;1.40;;;12.30;99.90;;;;;;5049168;28;20379;-70
2022/11/09 06:27:04;;;;;;;5.57;2.25;;;12.30;99.90;;;;;;5034440;28;20060;-71
2022/11/09 06:29:29;;;;;;;5.90;2.47;;;12.20;99.90;;;;;;5036412;28;20378;-71
2022/11/09 06:31:55;;;;;;;6.43;2.40;;;12.20;99.90;;;;;;5069407;28;20090;-71
2022/11/09 06:34:21;;;;;;;8.93;2.05;;;12.10;99.90;;;;;;5071978;28;20056;-71
2022/11/09 06:36:46;;;;;;;8.55;2.33;;;12.10;99.90;;;;;;5072179;28;20512;-71
2022/11/09 06:39:12;;;;;;;5.60;2.28;;;12.10;99.90;;;;;;5038489;28;20053;-71
2022/11/09 06:41:38;;;;;;;10.18;2.42;;;12.10;99.90;;;;;;5038309;28;20432;-70
2022/11/09 06:44:04;;;;;;;6.18;2.00;;;12.10;99.90;;;;;;5071410;28;20053;-70
2022/11/09 06:46:31;;;;;;;4.55;2.08;;;12.00;99.90;;;;;;5038564;28;20071;-71
2022/11/09 06:48:57;;;;;;;5.95;2.20;;;12.10;99.90;;;;;;5038486;28;20057;-71
2022/11/09 06:51:23;;;;;;;4.70;2.08;;;12.10;99.90;;;;;;5038069;28;20535;-70
2022/11/09 06:53:49;;;;;;;3.03;1.90;;;12.00;99.90;;;;;;5054807;28;20469;-70
2022/11/09 06:56:15;;;;;;;6.47;1.83;;;12.00;99.90;;;;;;5022201;28;20139;-71
2022/11/09 06:58:41;;;;;;;8.05;2.13;;;12.00;99.90;;;;;;5038624;28;20118;-71
2022/11/09 07:01:12;;;;;;;7.55;2.17;;;12.00;99.90;;;;;;5071552;28;20373;-71
2022/11/09 07:03:38;;;;;;;6.93;2.13;;;12.00;99.90;;;;;;5037954;28;20045;-70
2022/11/09 07:06:09;;;;;;;9.07;2.25;;;12.00;99.90;;;;;;5038362;28;20045;-71
2022/11/09 07:08:35;;;;;;;4.40;1.98;;;12.00;99.90;;;;;;5021752;28;20135;-71
2022/11/09 07:11:19;;;;;;;10.38;2.38;;;11.90;99.90;;;;;;5038198;28;20120;-71
2022/11/09 07:13:47;;;;;;;6.60;1.90;;;11.90;99.90;;;;;;5022089;28;20060;-70
2022/11/09 07:16:16;;;;;;;6.65;2.13;;;11.90;99.90;;;;;;5021800;28;20163;-70
2022/11/09 07:18:43;;;;;;;8.88;1.95;;;11.90;99.90;;;;;;5071308;28;20084;-71
2022/11/09 07:21:09;;;;;;;8.38;1.73;;;11.90;99.90;;;;;;5038195;28;20045;-70
2022/11/09 07:23:34;;;;;;;6.47;1.80;;;12.00;99.90;;;;;;5071201;28;20125;-70
2022/11/09 07:26:00;;;;;;;7.22;2.05;;;12.00;99.90;;;;;;5054640;28;20045;-71
2022/11/09 07:28:26;;;;;;;6.35;1.95;;;12.00;99.90;;;;;;5037894;28;20047;-70
2022/11/09 07:30:52;;;;;;;8.25;2.17;;;12.00;99.90;;;;;;5071340;28;20084;-70
2022/11/09 07:33:18;;;;;;;8.73;2.55;;;12.00;99.90;;;;;;5037187;28;20123;-71
2022/11/09 07:35:45;;;;;;;7.90;2.00;;;12.00;99.90;;;;;;5021246;28;20358;-70
2022/11/09 07:38:11;;;;;;;10.45;1.80;;;12.00;99.90;;;;;;5034578;28;20053;-71
2022/11/09 07:40:38;;;;;;;6.65;1.60;;;12.10;99.90;;;;;;5017549;28;20103;-70
2022/11/09 07:43:05;;;;;;;5.90;2.03;;;12.20;99.90;;;;;;5018090;28;20114;-70
2022/11/09 07:45:32;;;;;;;8.13;1.85;;;12.20;99.90;;;;;;5017328;28;20045;-71
2022/11/09 07:48:04;;;;;;;9.55;2.15;;;12.30;99.90;;;;;;5001549;28;20057;-71
2022/11/09 07:50:31;;;;;;;9.40;1.90;;;12.30;99.90;;;;;;5001305;28;20077;-71
2022/11/09 07:52:58;;;;;;;9.02;2.50;;;12.30;99.90;;;;;;5017168;28;20135;-71
2022/11/09 07:55:25;;;;;;;7.65;1.83;;;12.30;99.90;;;;;;5001419;28;20050;-71
2022/11/09 07:57:58;;;;;;;8.48;1.63;;;12.30;99.90;;;;;;5001398;28;20080;-70
2022/11/09 08:00:26;;;;;;;11.10;2.30;;;12.30;99.90;;;;;;5017565;28;20111;-73
2022/11/09 08:02:51;;;;;;;6.97;1.88;;;12.30;99.90;;;;;;5017541;28;20052;-71
2022/11/09 08:05:17;;;;;;;9.18;2.22;;;12.30;99.90;;;;;;5017541;28;20049;-71
2022/11/09 08:07:43;;;;;;;5.32;1.85;;;12.30;99.90;;;;;;5017026;28;20392;-70
2022/11/09 08:10:09;;;;;;;4.15;1.67;;;12.70;99.90;;;;;;5017404;28;20046;-70
2022/11/09 08:12:35;;;;;;;8.95;2.30;;;12.40;99.90;;;;;;5000648;28;20045;-71
2022/11/09 08:15:00;;;;;;;10.63;2.33;;;12.50;99.90;;;;;;5017407;28;20448;-71
2022/11/09 08:17:26;;;;;;;6.85;1.88;;;12.60;99.90;;;;;;5000964;28;20694;-73
2022/11/09 08:19:52;;;;;;;6.90;2.03;;;12.60;99.90;;;;;;5017263;28;20068;-70
2022/11/09 08:22:18;;;;;;;9.23;2.30;;;12.60;99.90;;;;;;5017098;28;20053;-70
2022/11/09 08:24:43;;;;;;;7.35;2.65;;;12.70;99.90;;;;;;5016743;28;20037;-71
2022/11/09 08:27:09;;;;;;;7.40;2.50;;;12.70;99.90;;;;;;5017083;28;20041;-70
2022/11/09 08:29:35;;;;;;;7.13;2.30;;;12.80;99.90;;;;;;5000433;28;20053;-70
2022/11/09 08:32:00;;;;;;;8.80;2.70;;;12.80;99.90;;;;;;5016670;28;20041;-71
2022/11/09 08:34:26;;;;;;;8.68;2.25;;;12.90;99.90;;;;;;5016978;28;20057;-70
2022/11/09 08:36:52;;;;;;;8.40;2.35;;;12.90;99.90;;;;;;5016542;28;20042;-70
2022/11/09 08:39:21;;;;;;;7.68;2.10;;;13.00;99.90;;;;;;5027677;28;20408;-70
2022/11/09 08:41:46;;;;;;;7.15;2.78;;;13.00;99.90;;;;;;5036374;28;20067;-70
2022/11/09 08:44:12;;;;;;;9.68;2.38;;;13.10;99.90;;;;;;5036419;28;20128;-71
2022/11/09 08:46:38;;;;;;;10.18;2.72;;;13.10;99.90;;;;;;5019851;28;20477;-70
2022/11/09 08:49:03;;;;;;;10.85;2.92;;;13.20;99.90;;;;;;5036492;28;20106;-70
2022/11/09 08:51:29;;;;;;;7.70;2.05;;;13.30;99.90;;;;;;5068541;28;20060;-70
2022/11/09 08:53:55;;;;;;;5.68;1.50;;;13.30;99.90;;;;;;5036120;28;20041;-70
2022/11/09 08:56:21;;;;;;;10.38;2.13;;;13.40;99.90;;;;;;5036172;28;20053;-70
2022/11/09 08:58:47;;;;;;;8.55;2.38;;;13.40;99.90;;;;;;5035979;28;20499;-70
2022/11/09 09:01:13;;;;;;;12.18;2.63;;;13.40;99.90;;;;;;5036165;28;20043;-70
2022/11/09 09:03:38;;;;;;;11.27;3.03;;;13.50;99.90;;;;;;5052478;28;20132;-71
2022/11/09 09:06:06;;;;;;;9.35;2.47;;;13.50;99.90;;;;;;5035908;28;20037;-70
2022/11/09 09:08:32;;;;;;;9.48;2.42;;;13.60;99.90;;;;;;5019693;28;20049;-71
2022/11/09 09:11:05;;;;;;;6.72;1.95;;;13.60;99.90;;;;;;5035894;28;20086;-71
2022/11/09 09:13:31;;;;;;;7.75;2.08;;;13.60;99.90;;;;;;5069227;28;20045;-70
2022/11/09 09:15:57;;;;;;;9.05;2.10;;;13.60;99.90;;;;;;5069000;28;20051;-70
2022/11/09 09:18:23;;;;;;;8.77;2.85;;;13.70;99.90;;;;;;5035880;28;20106;-70
2022/11/09 09:20:50;;;;;;;9.55;2.42;;;13.80;99.90;;;;;;5019064;28;20484;-71
2022/11/09 09:23:16;;;;;;;8.65;2.67;;;13.80;99.90;;;;;;5035810;28;20405;-69
2022/11/09 09:25:42;;;;;;;14.00;2.60;;;13.90;99.90;;;;;;5015070;28;20041;-70
2022/11/09 09:28:08;;;;;;;9.98;2.58;;;13.90;99.90;;;;;;5015711;28;20049;-70
2022/11/09 09:30:34;;;;;;;11.65;2.65;;;13.90;99.90;;;;;;5015932;28;20082;-69
2022/11/09 09:33:00;;;;;;;9.07;2.40;;;14.00;99.90;;;;;;4998945;28;20064;-69
2022/11/09 09:35:26;;;;;;;8.38;2.10;;;14.10;99.90;;;;;;4999474;28;20398;-69
2022/11/09 09:37:53;;;;;;;10.90;2.63;;;14.10;99.90;;;;;;5015528;28;20053;-69
2022/11/09 09:40:32;;;;;;;8.73;2.70;;;14.20;99.90;;;;;;5015218;28;20053;-69
2022/11/09 09:42:58;;;;;;;11.63;2.50;;;14.20;99.90;;;;;;5015447;28;20513;-70
2022/11/09 09:45:28;;;;;;;11.57;2.60;;;14.20;99.90;;;;;;5003023;28;20049;-70
2022/11/09 09:48:16;;;;;;;11.02;2.55;;;14.20;99.90;;;;;;5018376;28;20041;-70
2022/11/09 09:50:52;;;;;;;9.82;2.50;;;14.20;99.90;;;;;;5034813;28;20390;-70
2022/11/09 09:53:39;;;;;;;10.43;3.00;;;14.20;99.90;;;;;;5034744;28;20041;-70
2022/11/09 09:56:12;;;;;;;12.13;2.55;;;14.20;99.90;;;;;;5034973;28;20048;-69
2022/11/09 09:58:45;;;;;;;12.35;2.90;;;14.30;99.90;;;;;;5018598;28;20049;-70
2022/11/09 10:01:19;;;;;;;11.38;2.80;;;14.30;99.90;;;;;;5051141;28;20401;-69
2022/11/09 10:03:51;;;;;;;11.35;3.00;;;14.30;99.90;;;;;;5034762;28;20072;-70
2022/11/09 10:06:45;;;;;;;11.68;2.97;;;14.10;99.90;;;;;;5018373;28;20474;-70
2022/11/09 10:09:27;;;;;;;13.35;2.80;;;14.50;99.90;;;;;;5035360;28;20045;-70
2022/11/09 10:12:08;;;;;;;14.23;3.22;;;14.50;99.90;;;;;;4998682;28;20117;-69
2022/11/09 10:15:25;;;;;;;7.88;2.38;;;14.50;99.90;;;;;;5014487;28;20076;-70
2022/11/09 10:18:06;;;;;;;11.57;2.65;;;14.50;99.90;;;;;;5014928;28;20132;-70
2022/11/09 10:20:54;;;;;;;8.32;2.75;;;14.40;99.90;;;;;;5015342;28;20128;-70
2022/11/09 10:23:27;;;;;;;5.05;2.83;;;14.50;99.90;;;;;;4998845;28;20054;-70
2022/11/09 10:26:09;;;;;;;10.95;3.25;;;14.50;99.90;;;;;;5014701;28;20501;-70
2022/11/09 10:28:40;;;;;;;9.18;2.70;;;14.70;99.90;;;;;;5015300;28;20049;-70
2022/11/09 10:31:18;;;;;;;11.30;3.03;;;14.70;99.90;;;;;;4998601;28;20107;-70
2022/11/09 10:33:58;;;;;;;10.65;2.83;;;14.70;99.90;;;;;;5015235;28;20052;-70
2022/11/09 10:36:41;;;;;;;9.63;2.90;;;14.80;99.90;;;;;;5015340;28;20099;-70
2022/11/09 10:39:13;;;;;;;11.25;3.33;;;14.70;99.90;;;;;;4998329;28;20071;-70
2022/11/09 10:41:43;;;;;;;7.28;2.75;;;14.60;99.90;;;;;;5015223;28;20195;-70
2022/11/09 10:44:17;;;;;;;8.13;2.60;;;14.60;99.90;;;;;;4998589;28;20131;-70
2022/11/09 10:47:05;;;;;;;6.68;2.28;;;14.50;99.90;;;;;;5015099;28;20085;-70
2022/11/09 10:49:32;;;;;;;13.32;3.45;;;14.50;99.90;;;;;;5015057;28;20060;-70
2022/11/09 10:51:58;;;;;;;9.60;2.60;;;14.50;99.90;;;;;;5014622;28;20053;-70
2022/11/09 10:54:34;;;;;;;12.82;3.60;;;14.30;99.90;;;;;;5014888;28;20179;-69
2022/11/09 10:57:08;;;;;;;9.90;2.88;;;14.60;99.90;;;;;;5014684;28;20124;-70
2022/11/09 10:59:38;;;;;;;10.13;3.22;;;14.80;99.90;;;;;;5012855;28;20053;-68
2022/11/09 11:02:23;;;;;;;7.65;2.50;;;15.00;99.90;;;;;;5015505;28;20075;-71
2022/11/09 11:05:11;;;;;;;9.95;2.95;;;14.90;99.90;;;;;;4689222;28;9999951;-73
2022/11/09 11:07:37;;;;;;;12.13;3.33;;;14.90;99.90;;;;;;5021912;28;20060;-71
2022/11/09 11:10:15;;;;;;;6.25;2.80;;;14.70;99.90;;;;;;5031833;28;20053;-70
2022/11/09 11:12:43;;;;;;;13.00;3.22;;;14.60;99.90;;;;;;5047945;28;20044;-71
2022/11/09 11:15:30;;;;;;;9.00;2.67;;;14.60;99.90;;;;;;5018796;28;20053;-70
2022/11/09 11:18:01;;;;;;;9.90;2.72;;;14.50;99.90;;;;;;5035412;28;20107;-70
2022/11/09 11:20:34;;;;;;;10.35;2.60;;;14.50;99.90;;;;;;5035616;28;20049;-70
2022/11/09 11:23:20;;;;;;;8.65;2.47;;;14.50;99.90;;;;;;5068766;28;20516;-70
2022/11/09 11:26:10;;;;;;;11.80;2.85;;;14.40;99.90;;;;;;5068003;28;20052;-71
2022/11/09 11:28:43;;;;;;;10.07;2.58;;;14.30;99.90;;;;;;5035431;28;20474;-71
2022/11/09 11:31:16;;;;;;;7.90;3.17;;;14.40;99.90;;;;;;5035178;28;20135;-71
2022/11/09 11:33:42;;;;;;;9.40;3.45;;;14.50;99.90;;;;;;5035453;28;20091;-71
2022/11/09 11:37:01;;;;;;;7.10;2.63;;;14.90;99.90;;;;;;5051493;28;20049;-71
2022/11/09 11:39:58;;;;;;;10.13;3.72;;;14.80;99.90;;;;;;4993956;28;20058;-71
2022/11/09 11:42:45;;;;;;;7.47;2.58;;;14.60;99.90;;;;;;5035288;28;20053;-70
2022/11/09 11:45:31;;;;;;;5.55;2.25;;;14.60;99.90;;;;;;5051288;28;20099;-70
2022/11/09 11:48:02;;;;;;;12.18;3.10;;;14.40;99.90;;;;;;5050688;28;20049;-70
2022/11/09 11:50:28;;;;;;;6.88;2.58;;;14.40;99.90;;;;;;5034406;28;20417;-70
2022/11/09 11:53:12;;;;;;;8.30;2.70;;;14.40;99.90;;;;;;5051319;28;20049;-71
2022/11/09 11:56:00;;;;;;;11.40;3.08;;;14.40;99.90;;;;;;5051333;28;20087;-71
2022/11/09 11:59:06;;;;;;;6.55;2.10;;;14.30;99.90;;;;;;5051293;28;20053;-71
2022/11/09 12:01:37;;;;;;;7.95;2.63;;;14.30;99.90;;;;;;5033718;28;20136;-71
2022/11/09 12:04:03;;;;;;;;;;;14.30;99.90;;;;;;5051611;28;20090;-70
2022/11/09 12:06:47;;;;;;;7.20;2.53;;;14.30;99.90;;;;;;5034773;28;19921;-70
2022/11/09 12:09:32;;;;;;;6.82;2.58;;;14.30;99.90;;;;;;5027606;28;20140;-70
2022/11/09 12:12:06;;;;;;;9.40;2.63;;;14.30;99.90;;;;;;5034363;28;20131;-69
2022/11/09 12:14:54;;;;;;;13.82;3.33;;;14.30;99.90;;;;;;5050249;28;20049;-70
2022/11/09 12:17:46;;;;;;;7.30;2.60;;;14.30;99.90;;;;;;5050960;28;20136;-70
2022/11/09 12:21:05;;;;;;;9.02;2.45;;;14.20;99.90;;;;;;5050803;28;20440;-70
2022/11/09 12:23:45;;;;;;;9.70;2.60;;;14.10;99.90;;;;;;5012949;28;20057;-70
2022/11/09 12:26:14;;;;;;;16.98;4.28;;;14.20;99.90;;;;;;5011941;28;20052;-71
2022/11/09 12:29:19;;;;;;;6.40;2.00;;;14.20;99.90;;;;;;5033238;28;20049;-70
2022/11/09 12:31:44;;;;;;;11.55;2.53;;;14.10;99.90;;;;;;5051006;28;20057;-70
2022/11/09 12:34:24;;;;;;;9.18;2.63;;;14.10;99.90;;;;;;5051423;28;20110;-70
2022/11/09 12:37:06;;;;;;;7.93;2.10;;;14.10;99.90;;;;;;5049588;28;20106;-69
2022/11/09 12:39:44;;;;;;;10.05;2.28;;;14.00;99.90;;;;;;5032095;28;20060;-70
2022/11/09 12:42:19;;;;;;;8.13;2.30;;;14.10;99.90;;;;;;5029798;28;20064;-70
2022/11/09 12:45:12;;;;;;;7.32;2.42;;;14.10;99.90;;;;;;5050465;28;20044;-69
2022/11/09 12:47:43;;;;;;;7.93;2.10;;;14.10;99.90;;;;;;5050701;28;20052;-70
2022/11/09 12:50:28;;;;;;;6.00;1.87;;;14.00;99.90;;;;;;5049984;28;20124;-70
2022/11/09 12:52:54;;;;;;;8.52;2.00;;;14.00;99.90;;;;;;5050473;28;20065;-70
2022/11/09 12:55:47;;;;;;;12.20;3.05;;;14.00;99.90;;;;;;5050457;28;20044;-70
2022/11/09 12:58:31;;;;;;;9.48;2.55;;;14.00;99.90;;;;;;5050276;28;20099;-70
2022/11/09 13:01:10;;;;;;;10.23;3.15;;;14.00;99.90;;;;;;5050056;28;20572;-71
2022/11/09 13:03:50;;;;;;;12.00;2.55;;;14.10;99.90;;;;;;5050611;28;20110;-70